Time;durP1;ratioP1;P1;durP2;ratioP2;P2;SDS_P1;SDS_P2;PMS_P1;PMS_P2;Temp;Humidity;BMP_temperature;BMP_pressure;BME280_temperature;BME280_humidity;BME280_pressure;Samples;Min_cycle;Max_cycle;Signal;HPM_P1;HPM_P2
2021/01/09 00:02:22;;;;;;;12.43;9.53;;;;;;;2.33;68.03;95648.69;5077229;28;20199;-83
2021/01/09 00:04:48;;;;;;;11.80;9.50;;;;;;;2.38;67.45;95636.41;5093274;28;20703;-82
2021/01/09 00:07:14;;;;;;;11.43;9.23;;;;;;;2.41;67.84;95637.91;5090591;28;20200;-83
2021/01/09 00:09:41;;;;;;;10.60;8.77;;;;;;;2.38;67.80;95638.94;5072785;28;20320;-82
2021/01/09 00:12:11;;;;;;;10.77;8.80;;;;;;;2.39;67.43;95640.56;5073123;28;20197;-84
2021/01/09 00:14:37;;;;;;;10.50;8.70;;;;;;;2.34;67.34;95637.59;5093329;28;20222;-83
2021/01/09 00:17:03;;;;;;;10.57;9.10;;;;;;;2.35;67.48;95641.75;5080419;28;20205;-84
2021/01/09 00:19:29;;;;;;;11.27;9.23;;;;;;;2.33;67.59;95647.88;5072722;28;20193;-82
2021/01/09 00:21:55;;;;;;;11.03;8.73;;;;;;;2.32;67.79;95641.97;5072543;28;20201;-83
2021/01/09 00:24:21;;;;;;;13.23;9.17;;;;;;;2.27;67.71;95650.94;5072228;28;20289;-82
2021/01/09 00:26:47;;;;;;;10.00;8.60;;;;;;;2.21;67.84;95652.22;5081351;28;20199;-81
2021/01/09 00:29:13;;;;;;;11.30;9.23;;;;;;;2.14;67.78;95651.09;5092219;28;20227;-79
2021/01/09 00:31:39;;;;;;;10.47;9.00;;;;;;;2.21;68.37;95661.56;5071823;28;20683;-79
2021/01/09 00:34:05;;;;;;;10.50;9.17;;;;;;;2.26;68.21;95657.75;5071697;28;20744;-83
2021/01/09 00:36:31;;;;;;;10.93;9.03;;;;;;;2.32;67.73;95658.97;5090865;28;20216;-80
2021/01/09 00:38:57;;;;;;;10.67;9.07;;;;;;;2.33;67.60;95658.03;5092556;28;20725;-82
2021/01/09 00:41:28;;;;;;;10.93;9.00;;;;;;;2.32;67.90;95653.88;5075560;28;20621;-80
2021/01/09 00:43:55;;;;;;;9.57;8.13;;;;;;;2.25;67.62;95655.31;5080519;28;20192;-82
2021/01/09 00:46:21;;;;;;;10.80;8.90;;;;;;;2.28;68.05;95655.09;5092233;28;20220;-84
2021/01/09 00:48:47;;;;;;;10.87;8.70;;;;;;;2.30;67.47;95648.94;5085099;28;20220;-80
2021/01/09 00:51:14;;;;;;;12.03;8.33;;;;;;;2.32;67.58;95648.81;5072196;28;20192;-85
2021/01/09 00:53:40;;;;;;;10.83;8.43;;;;;;;2.34;67.76;95646.94;5077482;28;20203;-79
2021/01/09 00:56:05;;;;;;;10.43;8.67;;;;;;;2.31;67.32;95650.53;5092125;28;20893;-84
2021/01/09 00:58:31;;;;;;;10.47;8.60;;;;;;;2.30;67.40;95648.94;5076250;28;20189;-82
2021/01/09 01:01:01;;;;;;;11.27;9.20;;;;;;;2.27;67.81;95649.19;5071470;28;20203;-83
2021/01/09 01:03:27;;;;;;;11.33;8.80;;;;;;;2.26;67.82;95651.84;5086882;28;20196;-80
2021/01/09 01:05:53;;;;;;;12.90;8.77;;;;;;;2.25;67.73;95653.59;5092026;28;20220;-82
2021/01/09 01:08:19;;;;;;;11.13;8.97;;;;;;;2.27;68.11;95659.34;5078760;28;20216;-82
2021/01/09 01:10:46;;;;;;;9.80;8.23;;;;;;;2.23;68.16;95652.91;5074874;28;20254;-80
2021/01/09 01:13:11;;;;;;;10.43;8.30;;;;;;;2.16;68.37;95651.78;5091991;28;20207;-82
2021/01/09 01:15:37;;;;;;;10.83;8.20;;;;;;;2.13;68.03;95646.13;5088151;28;20365;-85
2021/01/09 01:18:04;;;;;;;10.50;8.60;;;;;;;2.04;68.36;95653.56;5072153;28;20230;-82
2021/01/09 01:20:30;;;;;;;11.47;9.23;;;;;;;2.05;68.47;95654.38;5073036;28;20208;-84
2021/01/09 01:22:56;;;;;;;13.03;10.57;;;;;;;2.05;68.43;95656.94;5092016;28;20246;-82
2021/01/09 01:25:22;;;;;;;13.30;10.90;;;;;;;2.05;68.53;95660.28;5078702;28;20227;-83
2021/01/09 01:27:48;;;;;;;10.53;8.80;;;;;;;2.11;68.83;95658.16;5071473;28;20228;-82
2021/01/09 01:30:15;;;;;;;11.73;9.07;;;;;;;2.16;68.62;95656.84;5080193;28;20221;-80
2021/01/09 01:32:41;;;;;;;12.17;9.43;;;;;;;2.19;68.74;95653.25;5091521;28;20203;-82
2021/01/09 01:35:09;;;;;;;11.87;9.60;;;;;;;2.20;68.63;95662.50;5082235;28;20225;-84
2021/01/09 01:37:35;;;;;;;10.27;8.33;;;;;;;2.24;68.42;95668.94;5071563;28;20201;-82
2021/01/09 01:40:01;;;;;;;10.80;8.33;;;;;;;2.26;68.28;95669.63;5090542;28;20223;-82
2021/01/09 01:42:29;;;;;;;10.63;8.60;;;;;;;2.26;68.29;95672.19;5091174;28;20200;-83
2021/01/09 01:44:55;;;;;;;11.17;8.30;;;;;;;2.28;67.81;95666.03;5071922;28;20229;-82
2021/01/09 01:47:21;;;;;;;11.37;9.30;;;;;;;2.20;68.33;95670.94;5071166;28;20731;-82
2021/01/09 01:49:49;;;;;;;9.53;8.50;;;;;;;2.23;67.87;95670.69;5088077;28;20236;-83
2021/01/09 01:52:17;;;;;;;10.57;8.87;;;;;;;2.24;68.15;95674.84;5082130;28;20280;-82
2021/01/09 01:54:44;;;;;;;10.93;8.70;;;;;;;2.25;67.90;95671.38;5070408;28;20228;-81
2021/01/09 01:57:12;;;;;;;11.20;8.77;;;;;;;2.29;68.13;95674.47;5078133;28;20200;-82
2021/01/09 01:59:38;;;;;;;10.77;8.77;;;;;;;2.28;68.23;95666.03;5091537;28;20196;-80
2021/01/09 02:02:07;;;;;;;12.10;9.47;;;;;;;2.30;68.27;95666.72;5085237;28;20204;-83
2021/01/09 02:04:33;;;;;;;11.20;9.47;;;;;;;2.30;68.00;95669.28;5070253;28;20274;-83
2021/01/09 02:07:02;;;;;;;11.93;8.77;;;;;;;2.30;68.03;95673.53;5087548;28;20196;-86
2021/01/09 02:09:34;;;;;;;11.33;9.03;;;;;;;2.29;68.21;95664.31;5090719;28;20220;-83
2021/01/09 02:12:04;;;;;;;11.03;9.00;;;;;;;2.27;68.15;95677.13;5072753;28;20185;-83
2021/01/09 02:14:38;;;;;;;10.63;9.30;;;;;;;2.18;68.38;95664.34;5070598;28;20270;-82
2021/01/09 02:17:05;;;;;;;11.07;9.27;;;;;;;2.20;68.56;95665.84;5087273;28;20203;-80
2021/01/09 02:19:34;;;;;;;11.03;8.83;;;;;;;2.19;68.62;95663.44;5082473;28;20246;-83
2021/01/09 02:22:03;;;;;;;11.37;9.13;;;;;;;2.16;68.82;95663.66;5070608;28;20205;-83
2021/01/09 02:24:30;;;;;;;15.80;12.37;;;;;;;2.20;68.76;95665.84;5078948;28;20691;-80
2021/01/09 02:26:57;;;;;;;20.10;14.73;;;;;;;2.22;68.92;95668.25;5090727;28;20277;-82
2021/01/09 02:29:24;;;;;;;19.80;11.33;;;;;;;2.23;68.84;95660.53;5089427;28;20699;-82
2021/01/09 02:31:55;;;;;;;13.07;10.37;;;;;;;2.23;68.94;95665.59;5090253;28;20862;-84
2021/01/09 02:34:23;;;;;;;11.23;8.67;;;;;;;2.21;68.64;95662.38;5072301;28;20237;-83
2021/01/09 02:36:50;;;;;;;11.37;9.00;;;;;;;2.21;68.50;95657.31;5070966;28;20223;-82
2021/01/09 02:39:16;;;;;;;11.50;9.13;;;;;;;2.18;68.62;95659.28;5069744;28;20638;-83
2021/01/09 02:41:47;;;;;;;11.13;9.33;;;;;;;2.23;68.63;95664.78;5084990;28;20207;-83
2021/01/09 02:44:14;;;;;;;11.07;8.73;;;;;;;2.25;69.02;95668.03;5078661;28;20197;-82
2021/01/09 02:46:40;;;;;;;13.37;9.90;;;;;;;2.26;68.62;95667.09;5076538;28;20207;-79
2021/01/09 02:49:07;;;;;;;11.90;8.93;;;;;;;2.23;68.82;95673.22;5090275;28;20631;-82
2021/01/09 02:51:33;;;;;;;11.37;9.00;;;;;;;2.25;68.83;95668.81;5084796;28;20197;-80
2021/01/09 02:53:59;;;;;;;11.33;9.27;;;;;;;2.22;68.97;95669.06;5069642;28;20789;-79
2021/01/09 02:56:25;;;;;;;11.83;9.57;;;;;;;2.19;69.02;95669.31;5072924;28;20223;-83
2021/01/09 02:58:52;;;;;;;11.43;9.00;;;;;;;2.19;69.01;95663.44;5090339;28;20196;-83
2021/01/09 03:01:18;;;;;;;12.43;9.40;;;;;;;2.16;68.92;95673.81;5076046;28;20819;-79
2021/01/09 03:03:43;;;;;;;11.10;9.20;;;;;;;2.19;69.17;95671.03;5078228;28;20291;-80
2021/01/09 03:06:09;;;;;;;11.57;8.87;;;;;;;2.19;69.26;95669.31;5089783;28;20699;-82
2021/01/09 03:08:35;;;;;;;13.40;9.70;;;;;;;2.23;68.88;95669.88;5082877;28;20228;-83
2021/01/09 03:11:01;;;;;;;12.83;9.70;;;;;;;2.25;69.19;95668.03;5069943;28;20201;-82
2021/01/09 03:13:27;;;;;;;12.07;9.73;;;;;;;2.17;69.13;95670.34;5082881;28;20192;-83
2021/01/09 03:15:55;;;;;;;10.13;8.47;;;;;;;2.21;69.07;95670.00;5069073;28;20654;-80
2021/01/09 03:18:21;;;;;;;11.07;9.30;;;;;;;2.22;69.27;95668.25;5082795;28;20193;-83
2021/01/09 03:20:47;;;;;;;11.43;8.93;;;;;;;2.20;69.32;95675.19;5090339;28;20204;-83
2021/01/09 03:23:13;;;;;;;11.60;9.30;;;;;;;2.12;69.45;95665.66;5077263;28;20211;-83
2021/01/09 03:25:39;;;;;;;11.43;8.93;;;;;;;2.16;69.52;95668.75;5069849;28;20220;-84
2021/01/09 03:28:05;;;;;;;12.53;9.70;;;;;;;2.13;69.54;95662.19;5079434;28;20216;-78
2021/01/09 03:30:31;;;;;;;11.17;9.60;;;;;;;2.15;69.51;95662.88;5090000;28;20208;-84
2021/01/09 03:32:58;;;;;;;11.00;9.23;;;;;;;2.16;69.53;95671.28;5082806;28;20193;-82
2021/01/09 03:35:26;;;;;;;12.47;9.90;;;;;;;2.13;69.52;95669.78;5073118;28;20228;-83
2021/01/09 03:37:52;;;;;;;11.63;9.57;;;;;;;2.16;69.60;95673.81;5081314;28;20227;-83
2021/01/09 03:40:18;;;;;;;11.93;9.60;;;;;;;2.15;69.73;95674.75;5093982;28;20196;-83
2021/01/09 03:42:44;;;;;;;12.07;9.80;;;;;;;2.15;69.52;95667.94;5092487;28;20624;-83
2021/01/09 03:45:10;;;;;;;11.77;9.13;;;;;;;2.13;69.55;95666.44;5093181;28;20212;-80
2021/01/09 03:47:36;;;;;;;12.63;9.67;;;;;;;2.16;69.13;95669.56;5078249;28;20196;-80
2021/01/09 03:50:05;;;;;;;12.33;9.40;;;;;;;2.15;69.57;95677.28;5072745;28;20217;-80
2021/01/09 03:52:31;;;;;;;11.53;9.17;;;;;;;2.13;69.68;95669.78;5085432;28;20200;-80
2021/01/09 03:54:56;;;;;;;11.73;9.43;;;;;;;2.12;69.39;95683.41;5091186;28;20224;-83
2021/01/09 03:57:22;;;;;;;13.73;10.10;;;;;;;2.14;69.62;95673.94;5072878;28;20558;-82
2021/01/09 03:59:48;;;;;;;12.83;9.97;;;;;;;2.14;69.53;95668.88;5073132;28;20197;-80
2021/01/09 04:02:15;;;;;;;12.03;9.63;;;;;;;2.12;69.25;95673.25;5092732;28;20226;-84
2021/01/09 04:04:41;;;;;;;15.10;10.77;;;;;;;2.11;69.53;95671.69;5078386;28;20223;-80
2021/01/09 04:07:08;;;;;;;13.53;10.77;;;;;;;2.13;69.24;95669.78;5073051;28;20723;-82
2021/01/09 04:09:34;;;;;;;13.33;10.83;;;;;;;2.16;69.31;95674.63;5072691;28;20223;-80
2021/01/09 04:12:00;;;;;;;13.23;10.57;;;;;;;2.17;69.34;95668.63;5072713;28;20196;-82
2021/01/09 04:14:26;;;;;;;11.63;9.63;;;;;;;2.18;69.11;95672.78;5082622;28;20196;-82
2021/01/09 04:16:52;;;;;;;13.10;9.80;;;;;;;2.19;69.13;95671.84;5092826;28;20204;-82
2021/01/09 04:19:18;;;;;;;12.20;10.10;;;;;;;2.19;69.65;95671.03;5073268;28;20841;-80
2021/01/09 04:21:44;;;;;;;13.30;10.23;;;;;;;2.18;69.09;95665.16;5072835;28;20232;-82
2021/01/09 04:24:12;;;;;;;11.97;10.07;;;;;;;2.18;69.39;95675.31;5090124;28;20246;-80
2021/01/09 04:26:38;;;;;;;12.70;10.23;;;;;;;2.19;69.46;95673.59;5092728;28;20291;-80
2021/01/09 04:29:04;;;;;;;12.43;10.43;;;;;;;2.21;69.00;95675.06;5075957;28;20224;-82
2021/01/09 04:31:30;;;;;;;11.80;10.07;;;;;;;2.22;69.34;95674.16;5071992;28;20228;-79
2021/01/09 04:33:56;;;;;;;13.73;10.70;;;;;;;2.22;69.05;95673.34;5086633;28;20628;-84
2021/01/09 04:36:22;;;;;;;14.13;11.00;;;;;;;2.18;69.55;95672.78;5090865;28;20212;-83
2021/01/09 04:38:48;;;;;;;12.77;10.37;;;;;;;2.16;69.75;95677.19;5092940;28;20188;-82
2021/01/09 04:41:19;;;;;;;12.27;9.63;;;;;;;2.13;69.77;95677.41;5081317;28;20542;-83
2021/01/09 04:43:46;;;;;;;13.80;10.50;;;;;;;2.15;69.91;95674.75;5071891;28;20734;-77
2021/01/09 04:46:14;;;;;;;12.67;10.73;;;;;;;2.16;70.10;95681.44;5080004;28;20809;-83
2021/01/09 04:48:40;;;;;;;11.93;10.07;;;;;;;2.17;69.65;95677.97;5092166;28;20216;-84
2021/01/09 04:51:06;;;;;;;13.53;10.63;;;;;;;2.11;69.86;95676.75;5091216;28;20879;-80
2021/01/09 04:53:35;;;;;;;14.67;11.10;;;;;;;2.10;70.56;95687.03;5091387;28;20754;-79
2021/01/09 04:56:01;;;;;;;13.93;10.90;;;;;;;2.10;70.25;95685.31;5080100;28;20702;-82
2021/01/09 04:58:31;;;;;;;14.13;11.03;;;;;;;2.11;70.17;95686.09;5092256;28;20720;-82
2021/01/09 05:00:57;;;;;;;13.83;11.60;;;;;;;2.08;70.61;95680.34;5077059;28;20215;-78
2021/01/09 05:03:24;;;;;;;14.27;11.07;;;;;;;2.09;70.07;95686.22;5071983;28;20296;-83
2021/01/09 05:05:50;;;;;;;12.87;10.17;;;;;;;2.07;70.66;95688.88;5084776;28;20220;-82
2021/01/09 05:08:16;;;;;;;11.60;10.03;;;;;;;2.00;70.75;95685.22;5091699;28;20278;-80
2021/01/09 05:10:43;;;;;;;12.60;10.73;;;;;;;2.06;70.39;95691.53;5079559;28;20260;-79
2021/01/09 05:13:09;;;;;;;14.40;10.80;;;;;;;2.10;69.98;95697.19;5071297;28;20193;-80
2021/01/09 05:15:38;;;;;;;12.47;9.63;;;;;;;2.12;70.24;95701.19;5090796;28;20219;-83
2021/01/09 05:18:04;;;;;;;13.83;11.30;;;;;;;2.12;69.90;95696.13;5085083;28;20216;-83
2021/01/09 05:20:30;;;;;;;12.63;10.73;;;;;;;2.13;69.54;95702.00;5071987;28;20201;-80
2021/01/09 05:22:58;;;;;;;13.30;10.67;;;;;;;2.15;69.34;95698.41;5083493;28;20200;-83
2021/01/09 05:25:24;;;;;;;13.30;11.07;;;;;;;2.15;69.44;95702.69;5091567;28;20256;-83
2021/01/09 05:27:52;;;;;;;13.30;11.13;;;;;;;2.14;69.16;95698.53;5080376;28;20614;-83
2021/01/09 05:30:18;;;;;;;13.93;10.77;;;;;;;2.12;69.72;95703.72;5071728;28;20204;-80
2021/01/09 05:32:45;;;;;;;14.20;11.43;;;;;;;2.12;69.31;95713.13;5076723;28;20203;-82
2021/01/09 05:35:13;;;;;;;12.20;10.73;;;;;;;2.09;69.36;95711.63;5091040;28;20232;-85
2021/01/09 05:37:39;;;;;;;13.33;11.00;;;;;;;2.06;69.36;95711.84;5071993;28;20204;-83
2021/01/09 05:40:06;;;;;;;13.03;10.70;;;;;;;2.08;69.63;95710.00;5070533;28;20201;-81
2021/01/09 05:42:34;;;;;;;15.33;11.70;;;;;;;2.07;69.41;95716.81;5088373;28;20234;-81
2021/01/09 05:45:00;;;;;;;12.70;10.80;;;;;;;2.01;69.59;95719.03;5090868;28;20230;-83
2021/01/09 05:47:29;;;;;;;14.57;10.93;;;;;;;2.03;69.63;95722.25;5074228;28;20208;-83
2021/01/09 05:49:57;;;;;;;13.00;10.73;;;;;;;2.05;69.58;95721.22;5070996;28;20228;-82
2021/01/09 05:52:24;;;;;;;13.67;10.87;;;;;;;2.09;69.99;95714.16;5090669;28;20196;-82
2021/01/09 05:54:55;;;;;;;13.87;10.40;;;;;;;2.04;69.99;95722.13;5088812;28;20220;-80
2021/01/09 05:57:21;;;;;;;14.60;10.67;;;;;;;2.08;69.29;95715.09;5070432;28;20239;-81
2021/01/09 05:59:46;;;;;;;13.80;10.50;;;;;;;2.08;69.29;95718.44;5070587;28;20197;-83
2021/01/09 06:02:13;;;;;;;14.90;10.53;;;;;;;2.07;69.28;95714.28;5070226;28;20204;-83
2021/01/09 06:04:43;;;;;;;12.90;10.13;;;;;;;2.08;69.14;95720.16;5075616;28;20339;-83
2021/01/09 06:07:15;;;;;;;13.10;10.63;;;;;;;2.06;69.06;95724.56;5091147;28;20659;-82
2021/01/09 06:09:45;;;;;;;13.53;10.77;;;;;;;2.08;68.77;95720.97;5085771;28;20211;-82
2021/01/09 06:12:12;;;;;;;12.87;10.23;;;;;;;2.12;69.24;95723.28;5070668;28;20196;-84
2021/01/09 06:14:43;;;;;;;14.40;10.23;;;;;;;2.14;69.01;95723.94;5074544;28;20216;-83
2021/01/09 06:17:09;;;;;;;12.73;10.00;;;;;;;2.16;69.05;95727.16;5089750;28;20295;-80
2021/01/09 06:19:35;;;;;;;13.17;9.97;;;;;;;2.17;68.57;95731.31;5086655;28;20189;-80
2021/01/09 06:22:02;;;;;;;13.83;10.53;;;;;;;2.15;69.08;95726.34;5087017;28;20199;-82
2021/01/09 06:24:29;;;;;;;12.37;10.23;;;;;;;2.14;69.42;95739.16;5087237;28;20203;-83
2021/01/09 06:26:56;;;;;;;12.80;10.63;;;;;;;2.12;69.14;95731.66;5082244;28;20200;-79
2021/01/09 06:29:26;;;;;;;13.40;10.47;;;;;;;2.15;69.21;95733.97;5090363;28;20227;-83
2021/01/09 06:31:55;;;;;;;12.30;10.07;;;;;;;2.14;69.05;95739.97;5070437;28;20197;-80
2021/01/09 06:34:22;;;;;;;13.70;10.73;;;;;;;2.16;69.52;95743.19;5074887;28;20192;-81
2021/01/09 06:36:54;;;;;;;13.77;11.23;;;;;;;2.17;69.04;95744.81;5089866;28;20207;-79
2021/01/09 06:39:20;;;;;;;13.07;10.50;;;;;;;2.19;69.43;95734.53;5088876;28;20615;-79
2021/01/09 06:41:48;;;;;;;13.20;10.80;;;;;;;2.17;69.14;95744.81;5088165;28;20196;-79
2021/01/09 06:44:15;;;;;;;13.53;10.30;;;;;;;2.19;69.21;95739.63;5068759;28;20266;-82
2021/01/09 06:46:42;;;;;;;13.37;10.80;;;;;;;2.12;69.50;95748.66;5085581;28;20680;-79
2021/01/09 06:49:16;;;;;;;12.40;10.67;;;;;;;2.16;69.04;95743.19;5070578;28;20220;-81
2021/01/09 06:52:02;;;;;;;12.50;10.20;;;;;;;2.13;69.27;95743.44;5071323;28;20644;-81
2021/01/09 06:54:29;;;;;;;13.50;11.30;;;;;;;2.20;69.01;95746.31;5088794;28;20599;-82
2021/01/09 06:57:16;;;;;;;13.57;10.67;;;;;;;2.19;69.08;95750.59;5085318;28;20197;-79
2021/01/09 06:59:43;;;;;;;13.97;10.67;;;;;;;2.24;69.33;95743.41;5068609;28;20197;-84
2021/01/09 07:02:20;;;;;;;13.43;10.87;;;;;;;2.21;69.04;95747.94;5070381;28;20191;-80
2021/01/09 07:05:00;;;;;;;12.50;10.20;;;;;;;2.22;69.31;95759.69;5069566;28;20592;-82
2021/01/09 07:07:31;;;;;;;12.47;10.40;;;;;;;2.21;69.44;95753.00;5079209;28;20199;-82
2021/01/09 07:10:03;;;;;;;14.40;10.90;;;;;;;2.22;69.02;95757.97;5093673;28;20224;-81
2021/01/09 07:12:31;;;;;;;12.70;10.47;;;;;;;2.14;69.16;95762.03;5083430;28;20613;-82
2021/01/09 07:15:06;;;;;;;13.03;10.50;;;;;;;2.12;68.93;95766.44;5080355;28;20207;-82
2021/01/09 07:17:37;;;;;;;13.50;10.30;;;;;;;2.08;69.38;95768.41;5092065;28;20195;-84
2021/01/09 07:20:06;;;;;;;11.80;10.33;;;;;;;2.09;69.66;95770.03;5091428;28;20192;-81
2021/01/09 07:22:38;;;;;;;13.33;10.57;;;;;;;2.11;69.54;95769.91;5091807;28;20195;-79
2021/01/09 07:25:07;;;;;;;13.90;9.93;;;;;;;2.15;69.12;95773.81;5084416;28;20753;-83
2021/01/09 07:27:38;;;;;;;14.33;10.93;;;;;;;2.19;69.42;95775.97;5090733;28;20302;-80
2021/01/09 07:30:12;;;;;;;13.63;11.10;;;;;;;2.21;69.05;95773.31;5074791;28;20593;-81
2021/01/09 07:32:45;;;;;;;13.97;10.77;;;;;;;2.22;69.25;95774.94;5077747;28;20223;-82
2021/01/09 07:35:12;;;;;;;13.70;10.30;;;;;;;2.19;69.17;95783.59;5091233;28;20259;-82
2021/01/09 07:37:39;;;;;;;13.90;11.27;;;;;;;2.22;68.92;95785.09;5085229;28;20189;-80
2021/01/09 07:40:12;;;;;;;13.80;10.50;;;;;;;2.20;69.01;95777.59;5079450;28;20652;-84
2021/01/09 07:42:39;;;;;;;12.73;10.60;;;;;;;2.24;68.96;95786.59;5082832;28;20197;-80
2021/01/09 07:45:06;;;;;;;12.40;10.17;;;;;;;2.24;68.47;95789.13;5083401;28;20447;-83
2021/01/09 07:47:36;;;;;;;12.47;9.70;;;;;;;2.19;68.66;95782.81;5078265;28;20692;-84
2021/01/09 07:50:03;;;;;;;14.43;11.03;;;;;;;2.23;68.62;95791.78;5075403;28;20217;-85
2021/01/09 07:52:32;;;;;;;14.07;10.87;;;;;;;2.26;68.37;95796.66;5072418;28;20672;-82
2021/01/09 07:54:58;;;;;;;13.20;10.77;;;;;;;2.26;68.96;95791.56;5087445;28;20219;-83
2021/01/09 07:57:25;;;;;;;14.03;10.53;;;;;;;2.24;69.33;95788.34;5093874;28;20216;-83
2021/01/09 08:00:13;;;;;;;14.40;10.90;;;;;;;2.40;75.32;95799.69;5076641;28;20196;-78
2021/01/09 08:02:40;;;;;;;14.30;10.77;;;;;;;2.48;69.03;95803.38;5077633;28;20200;-81
2021/01/09 08:05:11;;;;;;;13.93;10.80;;;;;;;2.48;68.70;95804.19;5095187;28;20972;-80
2021/01/09 08:07:38;;;;;;;13.07;10.73;;;;;;;2.33;69.94;95800.28;5093805;28;20192;-80
2021/01/09 08:10:24;;;;;;;15.23;10.63;;;;;;;2.22;69.93;95803.69;5078340;28;20273;-77
2021/01/09 08:12:53;;;;;;;15.50;9.43;;;;;;;2.47;88.63;95807.66;5090530;28;20261;-78
2021/01/09 08:15:20;;;;;;;12.00;9.40;;;;;;;3.23;100.00;95814.19;5082464;28;20215;-82
2021/01/09 08:17:46;;;;;;;12.90;10.57;;;;;;;3.33;70.45;95814.22;5090743;28;20200;-82
2021/01/09 08:20:13;;;;;;;14.23;10.63;;;;;;;3.19;67.52;95812.84;5075544;28;20193;-82
2021/01/09 08:22:49;;;;;;;11.83;9.83;;;;;;;2.98;67.21;95814.56;5088426;28;20716;-81
2021/01/09 08:25:15;;;;;;;13.20;10.13;;;;;;;2.81;67.32;95820.22;5070846;28;20255;-81
2021/01/09 08:27:43;;;;;;;14.03;10.53;;;;;;;2.74;67.60;95815.63;5086270;28;20196;-82
2021/01/09 08:30:12;;;;;;;13.13;10.37;;;;;;;2.67;67.73;95817.06;5088891;28;20467;-79
2021/01/09 08:32:39;;;;;;;13.07;11.37;;;;;;;2.60;67.88;95825.28;5090819;28;20622;-78
2021/01/09 08:35:06;;;;;;;14.10;10.70;;;;;;;2.50;68.57;95832.84;5077462;28;20215;-80
2021/01/09 08:37:32;;;;;;;12.37;10.47;;;;;;;2.42;68.41;95830.88;5094584;28;20222;-83
2021/01/09 08:40:08;;;;;;;12.43;10.43;;;;;;;2.34;68.58;95830.66;5078114;28;20197;-82
2021/01/09 08:42:34;;;;;;;13.27;10.33;;;;;;;2.28;68.84;95830.34;5073704;28;20735;-80
2021/01/09 08:45:00;;;;;;;11.13;9.23;;;;;;;2.20;69.09;95842.84;5089870;28;20216;-83
2021/01/09 08:47:28;;;;;;;12.07;8.87;;;;;;;2.17;69.05;95830.38;5085252;28;20246;-83
2021/01/09 08:49:58;;;;;;;12.57;9.53;;;;;;;2.25;69.04;95830.59;5073397;28;20224;-83
2021/01/09 08:52:27;;;;;;;12.23;9.37;;;;;;;2.33;68.68;95833.31;5080868;28;20226;-79
2021/01/09 08:54:54;;;;;;;11.60;9.13;;;;;;;2.38;68.23;95834.59;5076720;28;20270;-85
2021/01/09 08:57:21;;;;;;;10.63;8.90;;;;;;;2.25;68.17;95836.47;5079777;28;20223;-81
2021/01/09 08:59:48;;;;;;;11.27;8.23;;;;;;;2.43;80.59;95837.59;5079875;28;20850;-80
2021/01/09 09:02:19;;;;;;;10.97;9.07;;;;;;;2.74;72.35;95840.22;5074095;28;20200;-81
2021/01/09 09:04:47;;;;;;;10.80;9.50;;;;;;;2.84;68.63;95832.69;5089739;28;20220;-80
2021/01/09 09:07:19;;;;;;;11.20;8.80;;;;;;;2.87;67.76;95840.06;5092019;28;20192;-79
2021/01/09 09:09:47;;;;;;;12.40;9.63;;;;;;;2.83;67.34;95839.50;5086899;28;20679;-79
2021/01/09 09:12:22;;;;;;;11.47;9.60;;;;;;;2.78;66.62;95844.94;5070605;28;20201;-79
2021/01/09 09:14:54;;;;;;;10.93;9.30;;;;;;;2.75;66.88;95846.94;5075768;28;20241;-78
2021/01/09 09:17:20;;;;;;;12.17;9.43;;;;;;;2.64;66.82;95834.28;5081102;28;20276;-79
2021/01/09 09:19:46;;;;;;;11.27;8.87;;;;;;;2.69;66.88;95848.22;5074472;28;20193;-78
2021/01/09 09:22:13;;;;;;;10.03;8.83;;;;;;;2.75;66.42;95841.84;5071074;28;20204;-80
2021/01/09 09:24:40;;;;;;;11.30;8.97;;;;;;;2.82;66.82;95840.44;5080349;28;20216;-80
2021/01/09 09:27:19;;;;;;;11.87;9.33;;;;;;;2.93;67.33;95844.66;5090635;28;20376;-79
2021/01/09 09:29:46;;;;;;;12.07;9.60;;;;;;;2.90;65.87;95849.97;5075648;28;20231;-77
2021/01/09 09:32:22;;;;;;;11.60;9.17;;;;;;;2.82;65.27;95857.44;5069501;28;20280;-80
2021/01/09 09:34:48;;;;;;;11.83;8.70;;;;;;;2.86;66.09;95846.91;5082759;28;20621;-80
2021/01/09 09:37:15;;;;;;;10.73;8.80;;;;;;;2.91;65.39;95844.75;5087116;28;20269;-78
2021/01/09 09:39:41;;;;;;;10.53;9.33;;;;;;;2.94;65.45;95848.81;5070269;28;20201;-78
2021/01/09 09:42:07;;;;;;;11.23;9.27;;;;;;;2.94;65.91;95856.44;5087482;28;20286;-79
2021/01/09 09:44:35;;;;;;;12.10;9.20;;;;;;;2.97;65.57;95854.47;5090592;28;20200;-80
2021/01/09 09:47:01;;;;;;;11.33;9.80;;;;;;;3.04;65.92;95854.78;5074417;28;20192;-79
2021/01/09 09:49:27;;;;;;;27.13;20.37;;;;;;;3.08;65.00;95846.75;5089665;28;20220;-79
2021/01/09 09:51:53;;;;;;;19.07;14.57;;;;;;;3.14;64.98;95840.38;5074335;28;20236;-82
2021/01/09 09:54:29;;;;;;;13.53;10.70;;;;;;;3.18;65.07;95846.03;5089569;28;20230;-79
2021/01/09 09:56:55;;;;;;;11.63;9.70;;;;;;;3.24;64.10;95846.34;5074245;28;20287;-80
2021/01/09 09:59:27;;;;;;;11.23;9.50;;;;;;;3.43;64.11;95835.47;5069115;28;20255;-79
2021/01/09 10:01:58;;;;;;;11.33;9.87;;;;;;;3.70;63.68;95832.34;5081806;28;20223;-79
2021/01/09 10:04:24;;;;;;;12.20;9.93;;;;;;;3.84;62.59;95831.22;5087738;28;20275;-79
2021/01/09 10:06:51;;;;;;;11.10;9.20;;;;;;;4.01;61.89;95830.59;5081788;28;20208;-79
2021/01/09 10:09:17;;;;;;;12.03;9.87;;;;;;;4.08;61.22;95821.47;5069277;28;20319;-77
2021/01/09 10:11:46;;;;;;;11.17;9.70;;;;;;;4.23;61.79;95820.19;5068921;28;20201;-79
2021/01/09 10:14:12;;;;;;;24.83;18.20;;;;;;;4.47;61.29;95815.50;5071978;28;20245;-79
2021/01/09 10:16:38;;;;;;;12.10;10.77;;;;;;;4.51;60.48;95819.41;5088999;28;20238;-80
2021/01/09 10:19:05;;;;;;;12.33;10.37;;;;;;;4.50;60.59;95822.88;5087442;28;20226;-80
2021/01/09 10:21:32;;;;;;;10.83;9.73;;;;;;;4.55;60.51;95819.94;5068572;28;20200;-78
2021/01/09 10:23:59;;;;;;;11.20;10.10;;;;;;;4.61;60.44;95811.75;5069536;28;20204;-80
2021/01/09 10:26:29;;;;;;;12.40;10.27;;;;;;;4.81;60.15;95802.38;5089464;28;20231;-79
2021/01/09 10:28:56;;;;;;;12.60;10.57;;;;;;;4.81;59.83;95800.59;5075471;28;20216;-79
2021/01/09 10:31:30;;;;;;;11.70;10.03;;;;;;;4.99;59.74;95805.84;5068086;28;20201;-79
2021/01/09 10:33:56;;;;;;;12.30;10.40;;;;;;;4.98;58.52;95806.78;5087651;28;20229;-79
2021/01/09 10:36:23;;;;;;;10.03;8.93;;;;;;;4.78;58.42;95802.63;5088728;28;20223;-79
2021/01/09 10:38:49;;;;;;;10.67;9.47;;;;;;;4.76;59.53;95801.97;5069831;28;20224;-79
2021/01/09 10:41:14;;;;;;;10.43;9.00;;;;;;;4.36;59.50;95802.09;5084164;28;20800;-78
2021/01/09 10:43:40;;;;;;;10.17;9.10;;;;;;;4.38;59.87;95803.56;5069190;28;20205;-79
2021/01/09 10:46:07;;;;;;;8.97;8.03;;;;;;;4.51;59.64;95795.66;5082483;28;20219;-79
2021/01/09 10:48:33;;;;;;;9.17;8.23;;;;;;;4.66;58.89;95793.50;5088259;28;20227;-79
2021/01/09 10:50:59;;;;;;;9.60;8.60;;;;;;;4.94;58.45;95787.56;5074160;28;20731;-79
2021/01/09 10:53:25;;;;;;;10.63;9.20;;;;;;;5.25;57.44;95788.16;5086058;28;20204;-76
2021/01/09 10:55:55;;;;;;;10.57;9.47;;;;;;;5.45;56.85;95788.91;5076019;28;20739;-79
2021/01/09 10:58:20;;;;;;;12.53;11.23;;;;;;;5.51;57.83;95791.72;5067943;28;20258;-78
2021/01/09 11:00:46;;;;;;;12.53;11.20;;;;;;;5.47;58.77;95790.38;5077627;28;20448;-79
2021/01/09 11:03:13;;;;;;;15.20;12.37;;;;;;;5.22;59.22;95789.25;5077903;28;20602;-80
2021/01/09 11:05:41;;;;;;;13.33;11.93;;;;;;;5.23;59.50;95792.59;5086669;28;20227;-79
2021/01/09 11:08:07;;;;;;;13.47;11.93;;;;;;;5.23;60.14;95790.03;5085967;28;20204;-79
2021/01/09 11:10:33;;;;;;;15.07;12.53;;;;;;;5.17;59.63;95788.88;5066513;28;20227;-81
2021/01/09 11:12:59;;;;;;;13.47;12.07;;;;;;;5.09;59.82;95787.94;5068105;28;20196;-81
2021/01/09 11:15:25;;;;;;;13.53;11.93;;;;;;;4.98;60.18;95788.09;5086412;28;20227;-80
2021/01/09 11:17:50;;;;;;;13.10;11.60;;;;;;;4.78;60.14;95793.22;5087412;28;20207;-77
2021/01/09 11:20:17;;;;;;;12.20;10.77;;;;;;;4.48;60.90;95795.91;5069850;28;20652;-78
2021/01/09 11:22:43;;;;;;;13.50;11.67;;;;;;;4.31;61.57;95791.47;5072200;28;20228;-78
2021/01/09 11:25:10;;;;;;;13.10;11.70;;;;;;;4.21;62.52;95785.56;5087364;28;20219;-77
2021/01/09 11:27:36;;;;;;;13.80;11.30;;;;;;;4.18;62.23;95781.53;5082965;28;20197;-78
2021/01/09 11:30:03;;;;;;;13.80;10.80;;;;;;;4.15;61.84;95789.44;5067293;28;20681;-78
2021/01/09 11:32:29;;;;;;;13.30;11.90;;;;;;;4.16;61.84;95781.69;5069603;28;20200;-77